Weather at Cold Lake Regional Airport

Public forecast

Using degrees Celsius for public forecast. Weather courtesy of forecast.io.

Closest aviation weather report (METAR) to Cold Lake Regional Airport

Closest report is CFB Cold Lake, 4.4 nm (8.1 km) S. Retrieved 2021/01/20 12:00 UTC (46 minutes ago):

CYOD 201200Z 28017G22KT 15SM FEW035 M00/M05 A2943 RMK SC2 SLP989

Closest aviation forecast (TAF) to Cold Lake Regional Airport

Closest forecast is CFB Cold Lake, 4.4 nm (8.1 km) S. Retrieved 2021/01/20 12:35 UTC (11 minutes ago):

TAF CYOD 201130Z 2012/2112 29015G25KT P6SM BKN050 FM202000 29020G30KT P6SM -SHSN OVC030 TEMPO 2020/2024 2SM -SHSN BLSN OVC015 PROB30 2020/2024 1SM -SHSN BLSN VV008 FM210000 34012G22KT P6SM -SHSN OVC030 FM210600 34008KT P6SM BKN040 RMK NXT FCST BY 201500Z